Time;durP1;ratioP1;P1;durP2;ratioP2;P2;SDS_P1;SDS_P2;PMS_P1;PMS_P2;Temp;Humidity;BMP_temperature;BMP_pressure;BME280_temperature;BME280_humidity;BME280_pressure;Samples;Min_cycle;Max_cycle;Signal;HPM_P1;HPM_P2
2022/06/04 00:00:14;;;;;;;35.05;29.38;;;;;;;;;;9987325;28;20714;-69
2022/06/04 00:05:11;;;;;;;38.25;31.67;;;;;;;;;;9982557;28;20494;-69
2022/06/04 00:15:31;;;;;;;36.92;32.58;;;;;;;;;;9986656;28;20054;-69
2022/06/04 00:20:28;;;;;;;36.20;31.00;;;;;;;;;;9982054;28;20062;-69
2022/06/04 00:25:23;;;;;;;37.72;32.35;;;;;;;;;;9973853;28;20061;-69
2022/06/04 00:30:17;;;;;;;33.17;28.42;;;;;;;;;;9985537;28;20445;-69
2022/06/04 00:35:13;;;;;;;35.58;29.95;;;;;;;;;;9981984;28;20410;-70
2022/06/04 00:40:11;;;;;;;36.47;32.15;;;;;;;;;;9990827;28;20129;-69
2022/06/04 00:45:21;;;;;;;;;;;;;;;;;;9967788;28;20128;-70
2022/06/04 00:50:19;;;;;;;40.43;32.50;;;;;;;;;;9988752;28;19928;-69
2022/06/04 00:55:14;;;;;;;40.97;30.47;;;;;;;;;;9982895;28;20465;-69
2022/06/04 01:00:34;;;;;;;42.92;32.35;;;;;;;;;;9970317;28;20050;-69
2022/06/04 01:05:33;;;;;;;43.55;31.65;;;;;;;;;;9985349;28;20054;-69
2022/06/04 01:10:29;;;;;;;33.88;27.58;;;;;;;;;;9987088;28;20544;-69
2022/06/04 01:15:26;;;;;;;35.90;29.58;;;;;;;;;;9979703;28;20498;-69
2022/06/04 01:20:47;;;;;;;33.08;28.33;;;;;;;;;;9969614;28;20061;-70
2022/06/04 01:25:59;;;;;;;32.13;27.20;;;;;;;;;;9973202;28;20057;-68
2022/06/04 01:30:54;;;;;;;33.35;26.92;;;;;;;;;;9977074;28;20101;-69
2022/06/04 01:36:01;;;;;;;30.65;26.33;;;;;;;;;;9978055;28;20054;-69
2022/06/04 01:41:07;;;;;;;34.70;28.17;;;;;;;;;;9975226;28;20567;-68
2022/06/04 01:46:07;;;;;;;45.38;29.83;;;;;;;;;;9964338;28;20050;-69
2022/06/04 01:51:22;;;;;;;34.78;28.70;;;;;;;;;;9972454;28;20046;-70
2022/06/04 01:56:38;;;;;;;39.03;28.52;;;;;;;;;;9978939;28;20501;-69
2022/06/04 02:01:52;;;;;;;34.75;30.27;;;;;;;;;;9987117;28;20531;-69
2022/06/04 02:12:14;;;;;;;38.35;28.58;;;;;;;;;;9979805;28;20061;-70
2022/06/04 02:17:15;;;;;;;35.42;28.17;;;;;;;;;;9977568;28;20560;-69
2022/06/04 02:22:15;;;;;;;33.97;28.15;;;;;;;;;;9970861;28;20501;-70
2022/06/04 02:27:10;;;;;;;37.58;28.75;;;;;;;;;;9983000;28;20046;-70
2022/06/04 02:32:13;;;;;;;38.22;27.50;;;;;;;;;;9983752;28;20561;-70
2022/06/04 02:37:39;;;;;;;42.72;30.50;;;;;;;;;;9983002;28;20109;-70
2022/06/04 02:42:58;;;;;;;39.35;29.15;;;;;;;;;;9959154;28;20421;-70
2022/06/04 02:48:00;;;;;;;40.42;28.45;;;;;;;;;;9970651;28;20054;-70
2022/06/04 02:52:56;;;;;;;34.25;29.38;;;;;;;;;;9981431;28;20054;-70
2022/06/04 02:57:53;;;;;;;34.88;29.27;;;;;;;;;;9977914;28;20050;-70
2022/06/04 03:02:49;;;;;;;31.97;28.43;;;;;;;;;;9983746;28;20077;-70
2022/06/04 03:07:48;;;;;;;32.78;28.73;;;;;;;;;;9986943;28;20076;-69
2022/06/04 03:12:42;;;;;;;40.33;30.40;;;;;;;;;;9987555;28;20046;-70
2022/06/04 03:17:36;;;;;;;39.72;31.38;;;;;;;;;;9983970;28;20057;-70
2022/06/04 03:22:31;;;;;;;33.88;29.73;;;;;;;;;;9972663;28;20047;-70
2022/06/04 03:27:26;;;;;;;37.67;30.33;;;;;;;;;;9982207;28;20137;-70
2022/06/04 03:32:20;;;;;;;40.30;29.13;;;;;;;;;;9988411;28;20050;-70
2022/06/04 03:37:15;;;;;;;34.22;28.05;;;;;;;;;;9982363;28;20061;-70
2022/06/04 03:42:10;;;;;;;36.58;27.20;;;;;;;;;;9982272;28;20568;-70
2022/06/04 03:47:05;;;;;;;38.05;25.40;;;;;;;;;;9971866;28;20064;-70
2022/06/04 03:51:59;;;;;;;30.38;23.77;;;;;;;;;;9991600;28;20085;-69
2022/06/04 03:57:37;;;;;;;41.58;27.23;;;;;;;;;;9983048;28;20087;-70
2022/06/04 04:02:08;;;;;;;29.42;26.17;;;;;;;;;;9973747;28;20054;-69
2022/06/04 04:07:02;;;;;;;30.48;26.15;;;;;;;;;;9992723;28;20046;-70
2022/06/04 04:11:56;;;;;;;33.78;26.27;;;;;;;;;;9989961;28;20053;-70
2022/06/04 04:16:51;;;;;;;28.63;22.60;;;;;;;;;;9981076;28;20062;-69
2022/06/04 04:21:45;;;;;;;32.88;25.45;;;;;;;;;;9985095;28;20054;-70
2022/06/04 04:26:41;;;;;;;38.33;24.55;;;;;;;;;;9987985;28;20077;-70
2022/06/04 04:31:36;;;;;;;29.13;24.98;;;;;;;;;;9982320;28;20047;-70
2022/06/04 04:36:32;;;;;;;36.10;26.15;;;;;;;;;;9989606;28;20054;-70
2022/06/04 04:41:25;;;;;;;34.15;27.27;;;;;;;;;;9981524;28;20061;-70
2022/06/04 04:46:20;;;;;;;31.63;25.70;;;;;;;;;;9981214;28;20061;-70
2022/06/04 04:51:19;;;;;;;34.67;26.98;;;;;;;;;;9981461;28;20052;-69
2022/06/04 04:56:18;;;;;;;36.15;27.80;;;;;;;;;;9974812;28;20066;-69
2022/06/04 05:01:21;;;;;;;36.85;27.35;;;;;;;;;;9971124;28;20498;-68
2022/06/04 05:06:17;;;;;;;36.53;27.98;;;;;;;;;;9987900;28;20532;-68
2022/06/04 05:11:15;;;;;;;37.97;29.35;;;;;;;;;;9987615;28;20117;-67
2022/06/04 05:16:09;;;;;;;40.22;31.83;;;;;;;;;;9973127;28;20062;-67
2022/06/04 05:21:24;;;;;;;37.28;32.90;;;;;;;;;;9967782;28;20050;-67
2022/06/04 05:26:20;;;;;;;40.78;31.17;;;;;;;;;;9975305;28;20050;-67
2022/06/04 05:31:14;;;;;;;43.45;30.92;;;;;;;;;;9981695;28;20149;-67
2022/06/04 05:36:09;;;;;;;46.95;32.63;;;;;;;;;;9983131;28;20180;-66
2022/06/04 05:41:07;;;;;;;36.50;29.77;;;;;;;;;;9976711;28;20055;-67
2022/06/04 05:46:06;;;;;;;38.10;30.17;;;;;;;;;;9978076;28;20476;-69
2022/06/04 05:50:59;;;;;;;36.08;30.08;;;;;;;;;;9969932;28;20038;-68
2022/06/04 05:55:54;;;;;;;33.38;28.88;;;;;;;;;;9984760;28;20054;-68
2022/06/04 06:00:48;;;;;;;35.55;28.05;;;;;;;;;;9984256;28;20421;-70
2022/06/04 06:05:44;;;;;;;44.88;29.90;;;;;;;;;;9984388;28;20042;-70
2022/06/04 06:10:44;;;;;;;44.65;29.58;;;;;;;;;;9984480;28;20074;-72
2022/06/04 06:15:40;;;;;;;48.10;28.85;;;;;;;;;;9986473;28;20422;-67
2022/06/04 06:20:42;;;;;;;40.15;28.10;;;;;;;;;;9984379;28;20074;-67
2022/06/04 06:25:35;;;;;;;;;;;;;;;;;;9959835;28;20445;-67
2022/06/04 06:30:31;;;;;;;36.42;27.00;;;;;;;;;;9985584;28;19921;-69
2022/06/04 06:35:27;;;;;;;44.70;24.58;;;;;;;;;;9985732;28;20056;-70
2022/06/04 06:40:23;;;;;;;41.30;24.67;;;;;;;;;;9981921;28;20047;-67
2022/06/04 06:45:19;;;;;;;26.63;22.05;;;;;;;;;;9979919;28;20057;-68
2022/06/04 06:50:16;;;;;;;31.83;24.95;;;;;;;;;;9986982;28;20082;-68
2022/06/04 06:55:11;;;;;;;33.90;24.98;;;;;;;;;;9987391;28;20097;-68
2022/06/04 07:00:05;;;;;;;25.95;23.27;;;;;;;;;;9987696;28;20046;-67
2022/06/04 07:05:00;;;;;;;33.50;26.45;;;;;;;;;;9990345;28;20141;-67
2022/06/04 07:09:54;;;;;;;31.48;24.67;;;;;;;;;;9982674;28;20054;-66
2022/06/04 07:14:48;;;;;;;31.63;25.65;;;;;;;;;;9979253;28;20509;-73
2022/06/04 07:19:43;;;;;;;30.77;26.58;;;;;;;;;;9991990;28;20050;-72
2022/06/04 07:24:37;;;;;;;32.22;25.30;;;;;;;;;;9988908;28;20068;-72
2022/06/04 07:29:31;;;;;;;31.25;25.40;;;;;;;;;;9987782;28;20046;-72
2022/06/04 07:34:27;;;;;;;30.08;24.92;;;;;;;;;;9972458;28;20449;-71
2022/06/04 07:39:21;;;;;;;34.50;26.77;;;;;;;;;;9987190;28;20477;-75
2022/06/04 07:44:16;;;;;;;36.85;25.55;;;;;;;;;;9987725;28;20146;-71
2022/06/04 07:49:11;;;;;;;38.38;25.85;;;;;;;;;;9985750;28;20605;-71
2022/06/04 07:54:08;;;;;;;30.27;23.65;;;;;;;;;;9993456;28;20074;-74
2022/06/04 07:59:04;;;;;;;29.58;24.65;;;;;;;;;;10006563;28;20061;-74
2022/06/04 08:03:59;;;;;;;33.85;23.75;;;;;;;;;;10006141;28;20145;-73
2022/06/04 08:08:57;;;;;;;26.42;23.63;;;;;;;;;;10006699;28;20070;-73
2022/06/04 08:13:55;;;;;;;27.15;24.25;;;;;;;;;;10004638;28;20062;-76
2022/06/04 08:18:51;;;;;;;30.90;27.65;;;;;;;;;;10008934;28;20062;-74
2022/06/04 08:23:46;;;;;;;30.20;25.15;;;;;;;;;;10008190;28;20502;-74
2022/06/04 08:28:41;;;;;;;29.95;24.80;;;;;;;;;;10011883;28;20054;-77
2022/06/04 08:33:36;;;;;;;37.88;27.67;;;;;;;;;;9988221;28;20414;-69
2022/06/04 08:38:30;;;;;;;33.13;27.25;;;;;;;;;;9959696;28;20054;-70
2022/06/04 08:43:49;;;;;;;35.60;27.48;;;;;;;;;;9999567;28;20042;-69
2022/06/04 08:48:44;;;;;;;36.00;26.75;;;;;;;;;;10005510;28;20141;-70
2022/06/04 08:53:39;;;;;;;32.38;26.52;;;;;;;;;;10002113;28;20484;-73
2022/06/04 08:58:54;;;;;;;31.58;26.95;;;;;;;;;;10002348;28;20050;-79
2022/06/04 09:04:10;;;;;;;32.75;28.02;;;;;;;;;;9999243;28;20106;-77
2022/06/04 09:09:17;;;;;;;32.47;25.45;;;;;;;;;;10002515;28;20169;-78
2022/06/04 09:14:17;;;;;;;27.90;23.73;;;;;;;;;;9988275;28;20058;-71
2022/06/04 09:19:18;;;;;;;25.17;22.48;;;;;;;;;;10002254;28;20058;-72
2022/06/04 09:24:13;;;;;;;30.60;24.27;;;;;;;;;;9989291;28;20061;-74
2022/06/04 09:29:28;;;;;;;27.50;23.67;;;;;;;;;;10004547;28;20054;-72
2022/06/04 09:34:37;;;;;;;28.30;23.05;;;;;;;;;;10005538;28;20113;-73
2022/06/04 09:39:40;;;;;;;27.08;22.48;;;;;;;;;;10005232;28;20050;-72
2022/06/04 09:44:38;;;;;;;32.15;21.60;;;;;;;;;;10004010;28;20042;-68
2022/06/04 09:49:55;;;;;;;26.17;22.83;;;;;;;;;;10001168;28;20061;-75
2022/06/04 09:54:54;;;;;;;25.88;23.17;;;;;;;;;;10001344;28;20098;-74
2022/06/04 09:59:55;;;;;;;22.83;20.30;;;;;;;;;;10001532;28;20052;-72
2022/06/04 10:04:59;;;;;;;27.00;21.42;;;;;;;;;;10007969;28;20062;-72
2022/06/04 10:09:56;;;;;;;20.77;18.35;;;;;;;;;;10001219;28;20065;-72
2022/06/04 10:14:58;;;;;;;;;;;;;;;;;;10001846;28;20062;-74
2022/06/04 10:19:53;;;;;;;31.85;21.15;;;;;;;;;;10001333;28;20062;-74
2022/06/04 10:24:53;;;;;;;25.70;20.80;;;;;;;;;;10001402;28;20081;-73
2022/06/04 10:30:07;;;;;;;25.48;20.92;;;;;;;;;;10001427;28;20054;-77
2022/06/04 10:35:21;;;;;;;31.48;27.13;;;;;;;;;;10001388;28;20046;-75
2022/06/04 10:40:25;;;;;;;26.67;19.80;;;;;;;;;;9985897;28;20057;-75
2022/06/04 10:45:32;;;;;;;23.83;20.70;;;;;;;;;;10006053;28;20057;-76
2022/06/04 10:51:36;;;;;;;22.95;19.42;;;;;;;;;;10002558;28;20058;-77
2022/06/04 10:56:09;;;;;;;21.20;18.33;;;;;;;;;;9976435;28;20062;-76
2022/06/04 11:01:04;;;;;;;24.08;19.08;;;;;;;;;;9964564;28;20047;-77
2022/06/04 11:06:25;;;;;;;17.20;15.40;;;;;;;;;;9977206;28;20072;-74
2022/06/04 11:11:31;;;;;;;19.08;16.38;;;;;;;;;;9962962;28;20077;-72
2022/06/04 11:16:41;;;;;;;22.27;18.23;;;;;;;;;;9964794;28;20482;-77
2022/06/04 11:21:39;;;;;;;19.33;17.33;;;;;;;;;;9982146;28;20034;-72
2022/06/04 11:26:55;;;;;;;23.52;19.35;;;;;;;;;;9983655;28;20126;-71
2022/06/04 11:32:11;;;;;;;22.70;16.92;;;;;;;;;;9983159;28;20414;-80
2022/06/04 11:37:25;;;;;;;19.88;16.67;;;;;;;;;;9985055;28;20046;-76
2022/06/04 11:42:26;;;;;;;18.27;14.60;;;;;;;;;;9995210;28;20053;-77
2022/06/04 11:47:48;;;;;;;21.13;14.40;;;;;;;;;;10009901;28;20063;-79
2022/06/04 11:53:11;;;;;;;15.75;12.60;;;;;;;;;;9925331;28;20113;-70
2022/06/04 11:58:29;;;;;;;14.93;13.40;;;;;;;;;;10007347;28;20046;-73
2022/06/04 12:03:43;;;;;;;22.15;14.60;;;;;;;;;;10002407;28;20065;-75
2022/06/04 12:09:01;;;;;;;16.85;14.43;;;;;;;;;;10009723;28;20072;-72
2022/06/04 12:13:58;;;;;;;20.92;14.13;;;;;;;;;;10002366;28;20065;-78
2022/06/04 12:24:37;;;;;;;16.23;13.35;;;;;;;;;;9985021;28;20046;-77
2022/06/04 12:30:04;;;;;;;16.90;12.13;;;;;;;;;;10006369;28;20043;-74
2022/06/04 12:35:15;;;;;;;21.25;15.40;;;;;;;;;;10006275;28;20063;-76
2022/06/04 12:40:33;;;;;;;19.27;15.45;;;;;;;;;;10004000;28;20058;-76
2022/06/04 12:45:41;;;;;;;21.25;15.48;;;;;;;;;;10003917;28;20038;-76
2022/06/04 12:50:43;;;;;;;13.48;9.70;;;;;;;;;;10010994;28;20051;-81
2022/06/04 12:55:49;;;;;;;17.05;12.13;;;;;;;;;;10014105;28;20054;-79
2022/06/04 13:01:14;;;;;;;16.30;12.30;;;;;;;;;;10007748;28;20043;-79
2022/06/04 13:06:34;;;;;;;15.60;13.02;;;;;;;;;;9997374;28;20195;-79
2022/06/04 13:12:03;;;;;;;22.35;15.00;;;;;;;;;;10007146;28;20054;-82
2022/06/04 13:16:59;;;;;;;19.13;15.75;;;;;;;;;;9989231;28;20061;-80
2022/06/04 13:21:55;;;;;;;18.38;12.85;;;;;;;;;;10015151;28;20046;-84
2022/06/04 13:26:56;;;;;;;20.05;13.27;;;;;;;;;;10016484;28;20101;-84
2022/06/04 13:32:01;;;;;;;21.15;16.63;;;;;;;;;;10020004;28;20048;-84
2022/06/04 13:37:00;;;;;;;20.13;15.40;;;;;;;;;;9991495;28;20678;-72
2022/06/04 13:42:02;;;;;;;22.90;17.08;;;;;;;;;;10013857;28;20066;-86
2022/06/04 13:47:37;;;;;;;18.30;14.07;;;;;;;;;;10005106;28;20050;-74
2022/06/04 13:52:41;;;;;;;16.85;12.27;;;;;;;;;;9998552;28;20050;-71
2022/06/04 13:58:07;;;;;;;21.45;13.43;;;;;;;;;;9998185;28;20073;-69
2022/06/04 14:03:16;;;;;;;23.60;16.15;;;;;;;;;;9983951;28;20046;-72
2022/06/04 14:08:17;;;;;;;23.33;14.93;;;;;;;;;;9985480;28;20050;-72
2022/06/04 14:13:26;;;;;;;19.00;13.63;;;;;;;;;;9983854;28;20069;-71
2022/06/04 14:18:43;;;;;;;16.92;12.75;;;;;;;;;;10000880;28;20054;-71
2022/06/04 14:24:23;;;;;;;16.33;12.10;;;;;;;;;;9982250;28;20046;-67
2022/06/04 14:29:23;;;;;;;18.20;12.73;;;;;;;;;;9910444;28;20104;-68
2022/06/04 14:34:18;;;;;;;19.88;14.15;;;;;;;;;;9994703;28;20293;-67
2022/06/04 14:39:31;;;;;;;19.48;13.43;;;;;;;;;;9974945;28;20068;-66
2022/06/04 14:45:22;;;;;;;14.32;12.15;;;;;;;;;;9983541;28;20454;-67
2022/06/04 14:50:31;;;;;;;14.63;12.25;;;;;;;;;;9895034;28;20650;-69
2022/06/04 14:55:39;;;;;;;19.02;14.27;;;;;;;;;;9972625;28;20513;-68
2022/06/04 15:01:08;;;;;;;16.40;11.63;;;;;;;;;;9982802;28;20077;-68
2022/06/04 15:06:07;;;;;;;13.70;10.05;;;;;;;;;;9976185;28;20046;-68
2022/06/04 15:11:17;;;;;;;26.38;14.20;;;;;;;;;;9980978;28;20058;-67
2022/06/04 15:16:23;;;;;;;14.05;11.45;;;;;;;;;;9981313;28;20063;-69
2022/06/04 15:21:45;;;;;;;17.80;13.95;;;;;;;;;;9988305;28;20042;-68
2022/06/04 15:26:49;;;;;;;14.68;10.73;;;;;;;;;;9989172;28;20421;-68
2022/06/04 15:37:21;;;;;;;19.92;11.98;;;;;;;;;;9991152;28;20133;-70
2022/06/04 15:42:22;;;;;;;14.43;11.50;;;;;;;;;;9985025;28;20050;-69
2022/06/04 15:47:17;;;;;;;16.63;11.43;;;;;;;;;;9983833;28;20043;-70
2022/06/04 15:57:44;;;;;;;11.65;10.48;;;;;;;;;;9969823;28;20549;-69
2022/06/04 16:02:39;;;;;;;18.38;11.20;;;;;;;;;;9987189;28;20046;-68
2022/06/04 16:08:01;;;;;;;14.63;10.38;;;;;;;;;;9982854;28;20047;-68
2022/06/04 16:13:12;;;;;;;16.73;11.13;;;;;;;;;;9979854;28;20125;-68
2022/06/04 16:18:30;;;;;;;17.85;11.57;;;;;;;;;;9973964;28;20112;-73
2022/06/04 16:23:38;;;;;;;15.18;11.27;;;;;;;;;;9972906;28;20129;-68
2022/06/04 16:28:58;;;;;;;19.85;12.30;;;;;;;;;;9982017;28;20061;-68
2022/06/04 16:33:54;;;;;;;15.95;10.35;;;;;;;;;;9964280;28;20126;-68
2022/06/04 16:38:57;;;;;;;17.17;11.77;;;;;;;;;;9984601;28;20065;-67
2022/06/04 16:44:19;;;;;;;20.90;11.50;;;;;;;;;;9967679;28;20557;-67
2022/06/04 16:54:29;;;;;;;18.65;13.88;;;;;;;;;;9979872;28;20062;-69
2022/06/04 16:59:25;;;;;;;17.25;11.57;;;;;;;;;;9980515;28;20046;-69
2022/06/04 17:04:34;;;;;;;16.50;11.93;;;;;;;;;;9977035;28;20421;-68
2022/06/04 17:10:07;;;;;;;24.63;14.48;;;;;;;;;;9973119;28;20050;-67
2022/06/04 17:15:24;;;;;;;19.90;12.80;;;;;;;;;;9971605;28;20113;-67
2022/06/04 17:20:31;;;;;;;21.48;12.90;;;;;;;;;;9977761;28;20493;-70
2022/06/04 17:25:48;;;;;;;14.10;11.88;;;;;;;;;;9986234;28;20104;-68
2022/06/04 17:31:08;;;;;;;19.30;12.23;;;;;;;;;;9977331;28;20057;-69
2022/06/04 17:36:32;;;;;;;20.58;11.45;;;;;;;;;;9970592;28;20796;-69
2022/06/04 17:41:32;;;;;;;13.95;11.65;;;;;;;;;;9980843;28;20047;-69
2022/06/04 17:46:26;;;;;;;18.80;13.05;;;;;;;;;;9983087;28;20046;-69
2022/06/04 17:51:22;;;;;;;14.07;11.93;;;;;;;;;;9972059;28;20042;-69
2022/06/04 17:56:17;;;;;;;24.08;14.90;;;;;;;;;;9984358;28;20062;-69
2022/06/04 18:01:11;;;;;;;21.48;15.15;;;;;;;;;;9973836;28;20062;-69
2022/06/04 18:06:09;;;;;;;19.58;13.75;;;;;;;;;;9982875;28;20468;-69
2022/06/04 18:11:03;;;;;;;25.50;14.30;;;;;;;;;;9974668;28;20065;-68
2022/06/04 18:15:58;;;;;;;19.92;13.52;;;;;;;;;;9984790;28;20122;-69
2022/06/04 18:20:51;;;;;;;20.52;13.95;;;;;;;;;;9978568;28;20050;-70
2022/06/04 18:25:47;;;;;;;19.60;15.38;;;;;;;;;;9985318;28;20057;-69
2022/06/04 18:30:44;;;;;;;14.00;12.63;;;;;;;;;;9983668;28;20068;-69
2022/06/04 18:35:39;;;;;;;17.70;12.50;;;;;;;;;;9964465;28;20055;-69
2022/06/04 18:40:39;;;;;;;18.55;14.77;;;;;;;;;;9975043;28;20062;-70
2022/06/04 18:56:15;;;;;;;19.65;13.40;;;;;;;;;;9984605;28;20081;-69
2022/06/04 19:01:10;;;;;;;18.38;14.50;;;;;;;;;;9982129;28;20054;-69
2022/06/04 19:06:05;;;;;;;27.90;18.58;;;;;;;;;;9993798;28;20422;-70
2022/06/04 19:16:24;;;;;;;20.02;16.17;;;;;;;;;;9968572;28;20062;-70
2022/06/04 19:26:33;;;;;;;22.17;17.00;;;;;;;;;;9981173;28;20050;-70
2022/06/04 19:31:29;;;;;;;24.77;17.40;;;;;;;;;;9986156;28;20145;-70
2022/06/04 19:36:25;;;;;;;22.65;16.55;;;;;;;;;;9993451;28;20047;-70
2022/06/04 19:41:20;;;;;;;20.42;16.75;;;;;;;;;;9981799;28;20517;-70
2022/06/04 19:46:14;;;;;;;16.50;14.63;;;;;;;;;;9990024;28;20081;-70
2022/06/04 19:51:08;;;;;;;20.98;17.23;;;;;;;;;;9992629;28;20141;-69
2022/06/04 19:56:07;;;;;;;21.05;18.02;;;;;;;;;;9989925;28;20078;-69
2022/06/04 20:01:02;;;;;;;22.83;15.98;;;;;;;;;;9990999;28;20557;-69
2022/06/04 20:05:57;;;;;;;18.55;16.17;;;;;;;;;;9988249;28;20065;-69
2022/06/04 20:10:52;;;;;;;25.52;18.48;;;;;;;;;;9985524;28;20054;-69
2022/06/04 20:15:47;;;;;;;21.08;17.60;;;;;;;;;;9987695;28;20061;-69
2022/06/04 20:20:43;;;;;;;17.35;15.65;;;;;;;;;;9983675;28;20077;-69
2022/06/04 20:25:38;;;;;;;23.17;16.65;;;;;;;;;;9989543;28;20058;-69
2022/06/04 20:30:34;;;;;;;21.30;16.48;;;;;;;;;;9979627;28;20493;-69
2022/06/04 20:35:28;;;;;;;27.50;16.58;;;;;;;;;;9970530;28;20465;-69
2022/06/04 20:40:22;;;;;;;21.83;16.52;;;;;;;;;;9991564;28;20081;-69
2022/06/04 20:45:19;;;;;;;20.40;15.80;;;;;;;;;;9965222;28;20043;-69
2022/06/04 20:50:16;;;;;;;26.65;17.55;;;;;;;;;;9990277;28;20046;-69
2022/06/04 20:55:13;;;;;;;24.63;16.40;;;;;;;;;;9981943;28;20137;-69
2022/06/04 21:00:11;;;;;;;20.92;18.77;;;;;;;;;;9978443;28;20485;-69
2022/06/04 21:05:06;;;;;;;21.25;18.90;;;;;;;;;;9978198;28;20054;-69
2022/06/04 21:10:05;;;;;;;20.15;17.77;;;;;;;;;;9987052;28;20137;-69
2022/06/04 21:15:01;;;;;;;22.00;17.85;;;;;;;;;;9976383;28;20145;-69
2022/06/04 21:19:55;;;;;;;19.52;17.35;;;;;;;;;;9989182;28;20463;-69
2022/06/04 21:24:50;;;;;;;23.10;19.50;;;;;;;;;;9981553;28;20105;-69
2022/06/04 21:29:45;;;;;;;23.08;17.85;;;;;;;;;;9984814;28;20059;-69
2022/06/04 21:39:51;;;;;;;18.25;16.27;;;;;;;;;;9989337;28;20133;-69
2022/06/04 21:44:45;;;;;;;21.35;17.58;;;;;;;;;;9985521;28;20133;-69
2022/06/04 21:49:40;;;;;;;19.80;17.33;;;;;;;;;;9983364;28;20055;-69
2022/06/04 21:54:36;;;;;;;25.35;18.63;;;;;;;;;;9968721;28;20455;-69
2022/06/04 21:59:34;;;;;;;25.30;19.85;;;;;;;;;;9979734;28;20058;-69
2022/06/04 22:04:29;;;;;;;22.98;19.40;;;;;;;;;;9966291;28;20050;-69
2022/06/04 22:09:24;;;;;;;22.58;18.55;;;;;;;;;;9985685;28;20074;-69
2022/06/04 22:14:20;;;;;;;21.33;19.00;;;;;;;;;;9968341;28;20138;-69
2022/06/04 22:19:14;;;;;;;27.58;18.77;;;;;;;;;;9981686;28;20520;-69
2022/06/04 22:24:10;;;;;;;26.20;19.77;;;;;;;;;;9993704;28;20058;-69
2022/06/04 22:29:04;;;;;;;25.13;21.23;;;;;;;;;;9982210;28;20058;-69
2022/06/04 22:33:59;;;;;;;22.42;20.17;;;;;;;;;;9986988;28;20058;-69
2022/06/04 22:38:55;;;;;;;28.73;22.38;;;;;;;;;;9970252;28;20058;-69
2022/06/04 22:43:50;;;;;;;30.20;22.25;;;;;;;;;;9985810;28;20108;-69
2022/06/04 22:48:47;;;;;;;24.65;21.70;;;;;;;;;;9986344;28;20046;-69
2022/06/04 22:53:42;;;;;;;24.02;20.83;;;;;;;;;;9954557;28;20106;-69
2022/06/04 22:58:38;;;;;;;26.02;20.45;;;;;;;;;;9970007;28;20497;-70
2022/06/04 23:03:31;;;;;;;22.85;20.42;;;;;;;;;;9977465;28;20494;-68
2022/06/04 23:08:27;;;;;;;23.73;21.08;;;;;;;;;;9985133;28;20046;-69
2022/06/04 23:23:53;;;;;;;22.27;20.23;;;;;;;;;;9977550;28;20088;-64
2022/06/04 23:28:52;;;;;;;25.33;21.65;;;;;;;;;;9977478;28;20051;-64
2022/06/04 23:33:49;;;;;;;27.33;21.48;;;;;;;;;;9982617;28;20092;-65
2022/06/04 23:38:45;;;;;;;26.33;22.63;;;;;;;;;;9990590;28;20054;-65
2022/06/04 23:43:40;;;;;;;28.25;22.75;;;;;;;;;;9990804;28;20073;-65
2022/06/04 23:48:36;;;;;;;26.17;22.52;;;;;;;;;;9980009;28;20058;-64
2022/06/04 23:53:31;;;;;;;21.50;19.27;;;;;;;;;;9986216;28;20082;-64
2022/06/04 23:58:25;;;;;;;26.75;21.67;;;;;;;;;;9996488;28;20521;-64
